sensor_id;sensor_type;location;lat;lon;timestamp;P1;durP1;ratioP1;P2;durP2;ratioP2
13868;SDS011;7004;48.206;16.402;2024-03-23T00:55:02;12.27;;;8.43;;
13868;SDS011;7004;48.206;16.402;2024-03-23T00:57:28;10.10;;;7.80;;
13868;SDS011;7004;48.206;16.402;2024-03-23T00:59:54;11.90;;;9.13;;
13868;SDS011;7004;48.206;16.402;2024-03-23T01:02:20;10.40;;;8.77;;
13868;SDS011;7004;48.206;16.402;2024-03-23T01:04:47;14.40;;;8.50;;
13868;SDS011;7004;48.206;16.402;2024-03-23T01:07:13;12.10;;;8.60;;
13868;SDS011;7004;48.206;16.402;2024-03-23T01:09:39;11.60;;;9.17;;
13868;SDS011;7004;48.206;16.402;2024-03-23T01:12:06;9.83;;;8.67;;
13868;SDS011;7004;48.206;16.402;2024-03-23T01:14:32;12.17;;;8.53;;
13868;SDS011;7004;48.206;16.402;2024-03-23T01:16:58;13.07;;;8.87;;
13868;SDS011;7004;48.206;16.402;2024-03-23T01:19:24;12.00;;;8.83;;
13868;SDS011;7004;48.206;16.402;2024-03-23T01:21:51;10.30;;;8.73;;
13868;SDS011;7004;48.206;16.402;2024-03-23T01:24:17;12.80;;;8.57;;
13868;SDS011;7004;48.206;16.402;2024-03-23T01:26:43;11.77;;;8.50;;
13868;SDS011;7004;48.206;16.402;2024-03-23T01:29:11;11.27;;;8.83;;
13868;SDS011;7004;48.206;16.402;2024-03-23T01:31:37;10.70;;;8.90;;
13868;SDS011;7004;48.206;16.402;2024-03-23T01:34:03;12.90;;;9.70;;
13868;SDS011;7004;48.206;16.402;2024-03-23T01:36:29;13.70;;;9.10;;
13868;SDS011;7004;48.206;16.402;2024-03-23T01:38:55;9.57;;;8.50;;
13868;SDS011;7004;48.206;16.402;2024-03-23T01:41:23;12.27;;;8.90;;
13868;SDS011;7004;48.206;16.402;2024-03-23T01:43:50;13.40;;;8.53;;
13868;SDS011;7004;48.206;16.402;2024-03-23T01:46:16;11.23;;;9.03;;
13868;SDS011;7004;48.206;16.402;2024-03-23T01:48:45;13.17;;;8.93;;
13868;SDS011;7004;48.206;16.402;2024-03-23T01:51:12;13.83;;;9.10;;
13868;SDS011;7004;48.206;16.402;2024-03-23T01:53:39;13.07;;;9.33;;
13868;SDS011;7004;48.206;16.402;2024-03-23T01:56:05;9.70;;;8.60;;
13868;SDS011;7004;48.206;16.402;2024-03-23T01:58:31;11.40;;;8.80;;
13868;SDS011;7004;48.206;16.402;2024-03-23T02:00:57;10.30;;;9.13;;
13868;SDS011;7004;48.206;16.402;2024-03-23T02:03:27;14.43;;;8.57;;
13868;SDS011;7004;48.206;16.402;2024-03-23T02:05:55;13.40;;;9.13;;
13868;SDS011;7004;48.206;16.402;2024-03-23T02:08:22;12.43;;;8.77;;
13868;SDS011;7004;48.206;16.402;2024-03-23T02:10:49;10.37;;;8.73;;
13868;SDS011;7004;48.206;16.402;2024-03-23T02:13:17;12.93;;;8.80;;
13868;SDS011;7004;48.206;16.402;2024-03-23T02:15:45;10.80;;;8.27;;
13868;SDS011;7004;48.206;16.402;2024-03-23T02:18:11;10.80;;;7.80;;
13868;SDS011;7004;48.206;16.402;2024-03-23T02:20:38;10.60;;;8.73;;
13868;SDS011;7004;48.206;16.402;2024-03-23T02:23:04;12.60;;;8.70;;
13868;SDS011;7004;48.206;16.402;2024-03-23T02:25:34;12.27;;;8.90;;
13868;SDS011;7004;48.206;16.402;2024-03-23T02:28:00;14.37;;;9.03;;
13868;SDS011;7004;48.206;16.402;2024-03-23T02:30:26;12.80;;;9.43;;
13868;SDS011;7004;48.206;16.402;2024-03-23T02:32:52;12.73;;;8.70;;
13868;SDS011;7004;48.206;16.402;2024-03-23T02:35:19;12.10;;;9.03;;
13868;SDS011;7004;48.206;16.402;2024-03-23T02:37:48;13.33;;;9.27;;
13868;SDS011;7004;48.206;16.402;2024-03-23T02:40:16;13.03;;;9.17;;
13868;SDS011;7004;48.206;16.402;2024-03-23T02:42:43;17.03;;;11.17;;
13868;SDS011;7004;48.206;16.402;2024-03-23T02:45:09;16.53;;;11.73;;
13868;SDS011;7004;48.206;16.402;2024-03-23T02:47:36;15.20;;;10.50;;
13868;SDS011;7004;48.206;16.402;2024-03-23T02:50:02;11.10;;;8.97;;
13868;SDS011;7004;48.206;16.402;2024-03-23T02:52:30;10.63;;;9.50;;
13868;SDS011;7004;48.206;16.402;2024-03-23T02:54:56;15.63;;;9.00;;
13868;SDS011;7004;48.206;16.402;2024-03-23T02:57:23;11.47;;;8.97;;
13868;SDS011;7004;48.206;16.402;2024-03-23T02:59:49;13.73;;;9.40;;
13868;SDS011;7004;48.206;16.402;2024-03-23T03:02:17;14.37;;;9.17;;
13868;SDS011;7004;48.206;16.402;2024-03-23T03:04:44;18.03;;;10.23;;
13868;SDS011;7004;48.206;16.402;2024-03-23T03:07:10;13.53;;;9.83;;
13868;SDS011;7004;48.206;16.402;2024-03-23T03:09:37;14.33;;;10.70;;
13868;SDS011;7004;48.206;16.402;2024-03-23T03:12:05;16.37;;;10.23;;
13868;SDS011;7004;48.206;16.402;2024-03-23T03:14:32;14.93;;;9.80;;
13868;SDS011;7004;48.206;16.402;2024-03-23T03:17:03;15.47;;;10.93;;
13868;SDS011;7004;48.206;16.402;2024-03-23T03:19:31;14.00;;;9.63;;
13868;SDS011;7004;48.206;16.402;2024-03-23T03:21:58;13.10;;;9.53;;
13868;SDS011;7004;48.206;16.402;2024-03-23T03:24:24;11.10;;;9.80;;
13868;SDS011;7004;48.206;16.402;2024-03-23T03:26:50;11.00;;;9.30;;
13868;SDS011;7004;48.206;16.402;2024-03-23T03:29:16;10.90;;;9.23;;
13868;SDS011;7004;48.206;16.402;2024-03-23T03:31:42;12.53;;;9.63;;
13868;SDS011;7004;48.206;16.402;2024-03-23T03:34:10;17.47;;;10.10;;
13868;SDS011;7004;48.206;16.402;2024-03-23T03:36:37;11.07;;;9.00;;
13868;SDS011;7004;48.206;16.402;2024-03-23T03:39:03;12.30;;;9.73;;
13868;SDS011;7004;48.206;16.402;2024-03-23T03:41:31;11.30;;;9.10;;
13868;SDS011;7004;48.206;16.402;2024-03-23T03:43:57;14.17;;;10.20;;
13868;SDS011;7004;48.206;16.402;2024-03-23T03:46:28;12.10;;;10.40;;
13868;SDS011;7004;48.206;16.402;2024-03-23T03:48:54;12.80;;;10.30;;
13868;SDS011;7004;48.206;16.402;2024-03-23T03:51:21;13.73;;;10.30;;
13868;SDS011;7004;48.206;16.402;2024-03-23T03:53:47;11.77;;;9.70;;
13868;SDS011;7004;48.206;16.402;2024-03-23T03:56:13;10.60;;;9.23;;
13868;SDS011;7004;48.206;16.402;2024-03-23T03:58:39;13.43;;;10.30;;
13868;SDS011;7004;48.206;16.402;2024-03-23T04:01:06;14.53;;;10.60;;
13868;SDS011;7004;48.206;16.402;2024-03-23T04:03:32;15.67;;;10.23;;
13868;SDS011;7004;48.206;16.402;2024-03-23T04:05:59;13.00;;;10.37;;
13868;SDS011;7004;48.206;16.402;2024-03-23T04:08:29;11.20;;;10.00;;
13868;SDS011;7004;48.206;16.402;2024-03-23T04:10:55;13.13;;;10.60;;
13868;SDS011;7004;48.206;16.402;2024-03-23T04:13:21;16.03;;;10.17;;
13868;SDS011;7004;48.206;16.402;2024-03-23T04:15:48;11.53;;;9.90;;
13868;SDS011;7004;48.206;16.402;2024-03-23T04:18:14;12.17;;;10.10;;
13868;SDS011;7004;48.206;16.402;2024-03-23T04:20:41;14.53;;;10.37;;
13868;SDS011;7004;48.206;16.402;2024-03-23T04:23:07;16.83;;;10.17;;
13868;SDS011;7004;48.206;16.402;2024-03-23T04:25:34;13.47;;;9.43;;
13868;SDS011;7004;48.206;16.402;2024-03-23T04:28:01;14.57;;;10.57;;
13868;SDS011;7004;48.206;16.402;2024-03-23T04:30:28;12.90;;;9.90;;
13868;SDS011;7004;48.206;16.402;2024-03-23T04:32:56;13.00;;;10.40;;
13868;SDS011;7004;48.206;16.402;2024-03-23T04:35:28;13.23;;;9.97;;
13868;SDS011;7004;48.206;16.402;2024-03-23T04:37:56;16.00;;;10.90;;
13868;SDS011;7004;48.206;16.402;2024-03-23T04:40:24;14.83;;;10.40;;
13868;SDS011;7004;48.206;16.402;2024-03-23T04:42:51;13.23;;;10.43;;
13868;SDS011;7004;48.206;16.402;2024-03-23T04:45:17;13.93;;;10.80;;
13868;SDS011;7004;48.206;16.402;2024-03-23T04:47:44;17.40;;;10.57;;
13868;SDS011;7004;48.206;16.402;2024-03-23T04:50:10;16.87;;;10.80;;
13868;SDS011;7004;48.206;16.402;2024-03-23T04:52:36;12.37;;;10.27;;
13868;SDS011;7004;48.206;16.402;2024-03-23T04:55:02;13.43;;;10.80;;
13868;SDS011;7004;48.206;16.402;2024-03-23T04:57:29;14.73;;;10.53;;
13868;SDS011;7004;48.206;16.402;2024-03-23T04:59:58;17.53;;;10.47;;
13868;SDS011;7004;48.206;16.402;2024-03-23T05:02:24;12.20;;;10.43;;
13868;SDS011;7004;48.206;16.402;2024-03-23T05:04:51;16.53;;;10.43;;
13868;SDS011;7004;48.206;16.402;2024-03-23T05:07:17;17.67;;;11.10;;
13868;SDS011;7004;48.206;16.402;2024-03-23T05:09:43;11.90;;;10.30;;
13868;SDS011;7004;48.206;16.402;2024-03-23T05:12:10;13.63;;;10.50;;
13868;SDS011;7004;48.206;16.402;2024-03-23T05:14:36;13.43;;;10.13;;
13868;SDS011;7004;48.206;16.402;2024-03-23T05:17:02;14.33;;;10.00;;
13868;SDS011;7004;48.206;16.402;2024-03-23T05:19:29;13.20;;;10.30;;
13868;SDS011;7004;48.206;16.402;2024-03-23T05:21:55;13.83;;;10.67;;
13868;SDS011;7004;48.206;16.402;2024-03-23T05:24:22;15.73;;;10.00;;
13868;SDS011;7004;48.206;16.402;2024-03-23T05:26:48;15.63;;;10.83;;
13868;SDS011;7004;48.206;16.402;2024-03-23T05:29:14;19.77;;;10.97;;
13868;SDS011;7004;48.206;16.402;2024-03-23T05:31:43;17.20;;;10.50;;
13868;SDS011;7004;48.206;16.402;2024-03-23T05:34:09;14.03;;;9.60;;
13868;SDS011;7004;48.206;16.402;2024-03-23T05:36:36;15.87;;;10.37;;
13868;SDS011;7004;48.206;16.402;2024-03-23T05:39:03;13.20;;;10.23;;
13868;SDS011;7004;48.206;16.402;2024-03-23T05:41:29;18.60;;;11.33;;
13868;SDS011;7004;48.206;16.402;2024-03-23T05:43:55;11.93;;;9.93;;
13868;SDS011;7004;48.206;16.402;2024-03-23T05:46:21;15.13;;;10.40;;
13868;SDS011;7004;48.206;16.402;2024-03-23T05:48:47;14.73;;;10.97;;
13868;SDS011;7004;48.206;16.402;2024-03-23T05:51:13;16.30;;;11.57;;
13868;SDS011;7004;48.206;16.402;2024-03-23T05:53:39;13.33;;;9.83;;
13868;SDS011;7004;48.206;16.402;2024-03-23T05:56:06;15.10;;;10.07;;
13868;SDS011;7004;48.206;16.402;2024-03-23T05:58:32;14.97;;;11.70;;
13868;SDS011;7004;48.206;16.402;2024-03-23T06:00:59;15.80;;;11.73;;
13868;SDS011;7004;48.206;16.402;2024-03-23T06:03:27;16.93;;;11.57;;
13868;SDS011;7004;48.206;16.402;2024-03-23T06:05:54;14.03;;;11.10;;
13868;SDS011;7004;48.206;16.402;2024-03-23T06:08:20;14.10;;;11.23;;
13868;SDS011;7004;48.206;16.402;2024-03-23T06:10:48;14.30;;;11.13;;
13868;SDS011;7004;48.206;16.402;2024-03-23T06:13:15;14.97;;;11.17;;
13868;SDS011;7004;48.206;16.402;2024-03-23T06:15:42;17.03;;;11.60;;
13868;SDS011;7004;48.206;16.402;2024-03-23T06:18:08;15.13;;;11.60;;
13868;SDS011;7004;48.206;16.402;2024-03-23T06:20:34;13.43;;;10.73;;
13868;SDS011;7004;48.206;16.402;2024-03-23T06:23:00;15.87;;;11.63;;
13868;SDS011;7004;48.206;16.402;2024-03-23T06:25:29;14.93;;;11.20;;
13868;SDS011;7004;48.206;16.402;2024-03-23T06:27:55;12.90;;;11.47;;
13868;SDS011;7004;48.206;16.402;2024-03-23T06:30:23;16.87;;;11.73;;
13868;SDS011;7004;48.206;16.402;2024-03-23T06:32:52;14.77;;;11.47;;
13868;SDS011;7004;48.206;16.402;2024-03-23T06:35:18;16.27;;;12.10;;
13868;SDS011;7004;48.206;16.402;2024-03-23T06:37:45;14.37;;;11.33;;
13868;SDS011;7004;48.206;16.402;2024-03-23T06:40:11;13.27;;;11.80;;
13868;SDS011;7004;48.206;16.402;2024-03-23T06:42:37;16.50;;;11.30;;
13868;SDS011;7004;48.206;16.402;2024-03-23T06:45:04;15.80;;;11.53;;
13868;SDS011;7004;48.206;16.402;2024-03-23T06:47:31;14.00;;;10.97;;
13868;SDS011;7004;48.206;16.402;2024-03-23T06:49:59;15.63;;;10.63;;
13868;SDS011;7004;48.206;16.402;2024-03-23T06:52:28;13.60;;;11.00;;
13868;SDS011;7004;48.206;16.402;2024-03-23T06:54:55;15.67;;;11.97;;
13868;SDS011;7004;48.206;16.402;2024-03-23T06:57:22;13.13;;;10.47;;
13868;SDS011;7004;48.206;16.402;2024-03-23T06:59:48;13.70;;;10.70;;
13868;SDS011;7004;48.206;16.402;2024-03-23T07:02:14;13.30;;;10.73;;
13868;SDS011;7004;48.206;16.402;2024-03-23T07:04:42;13.63;;;10.17;;
13868;SDS011;7004;48.206;16.402;2024-03-23T07:07:08;13.07;;;10.27;;
13868;SDS011;7004;48.206;16.402;2024-03-23T07:09:34;12.50;;;10.03;;
13868;SDS011;7004;48.206;16.402;2024-03-23T07:12:00;12.87;;;10.80;;
13868;SDS011;7004;48.206;16.402;2024-03-23T07:14:26;12.90;;;9.90;;
13868;SDS011;7004;48.206;16.402;2024-03-23T07:16:52;15.43;;;10.33;;
13868;SDS011;7004;48.206;16.402;2024-03-23T07:19:18;13.03;;;10.40;;
13868;SDS011;7004;48.206;16.402;2024-03-23T07:21:45;15.17;;;9.93;;
13868;SDS011;7004;48.206;16.402;2024-03-23T07:24:11;12.73;;;10.20;;
13868;SDS011;7004;48.206;16.402;2024-03-23T07:26:37;13.73;;;10.80;;
13868;SDS011;7004;48.206;16.402;2024-03-23T07:29:05;13.50;;;9.67;;
13868;SDS011;7004;48.206;16.402;2024-03-23T07:31:32;13.23;;;10.37;;
13868;SDS011;7004;48.206;16.402;2024-03-23T07:33:58;14.27;;;10.77;;
13868;SDS011;7004;48.206;16.402;2024-03-23T07:36:24;12.53;;;10.70;;
13868;SDS011;7004;48.206;16.402;2024-03-23T07:38:51;14.13;;;10.83;;
13868;SDS011;7004;48.206;16.402;2024-03-23T07:41:18;13.33;;;10.83;;
13868;SDS011;7004;48.206;16.402;2024-03-23T07:43:46;12.17;;;10.87;;
13868;SDS011;7004;48.206;16.402;2024-03-23T07:46:14;11.80;;;10.33;;
13868;SDS011;7004;48.206;16.402;2024-03-23T07:48:41;13.83;;;10.77;;
13868;SDS011;7004;48.206;16.402;2024-03-23T07:51:08;12.43;;;10.00;;
13868;SDS011;7004;48.206;16.402;2024-03-23T07:53:37;12.73;;;9.83;;
13868;SDS011;7004;48.206;16.402;2024-03-23T07:56:05;11.33;;;10.23;;
13868;SDS011;7004;48.206;16.402;2024-03-23T07:58:35;13.63;;;10.03;;
13868;SDS011;7004;48.206;16.402;2024-03-23T08:01:12;11.07;;;9.87;;
13868;SDS011;7004;48.206;16.402;2024-03-23T08:03:45;12.27;;;10.40;;
13868;SDS011;7004;48.206;16.402;2024-03-23T08:06:18;14.57;;;10.83;;
13868;SDS011;7004;48.206;16.402;2024-03-23T08:08:47;14.97;;;10.23;;
13868;SDS011;7004;48.206;16.402;2024-03-23T08:11:15;12.30;;;9.70;;
13868;SDS011;7004;48.206;16.402;2024-03-23T08:13:42;12.03;;;10.20;;
13868;SDS011;7004;48.206;16.402;2024-03-23T08:16:10;12.50;;;9.73;;
13868;SDS011;7004;48.206;16.402;2024-03-23T08:18:41;13.07;;;9.50;;
13868;SDS011;7004;48.206;16.402;2024-03-23T08:21:07;13.37;;;9.30;;
13868;SDS011;7004;48.206;16.402;2024-03-23T08:23:34;10.33;;;8.37;;
13868;SDS011;7004;48.206;16.402;2024-03-23T08:26:15;11.97;;;8.73;;
13868;SDS011;7004;48.206;16.402;2024-03-23T08:28:44;8.17;;;7.20;;
13868;SDS011;7004;48.206;16.402;2024-03-23T08:31:10;8.03;;;7.23;;
13868;SDS011;7004;48.206;16.402;2024-03-23T08:33:37;10.10;;;6.80;;
13868;SDS011;7004;48.206;16.402;2024-03-23T08:36:07;9.00;;;7.27;;
13868;SDS011;7004;48.206;16.402;2024-03-23T08:38:34;8.40;;;6.93;;
13868;SDS011;7004;48.206;16.402;2024-03-23T08:41:10;8.33;;;7.07;;
13868;SDS011;7004;48.206;16.402;2024-03-23T08:43:40;7.30;;;6.60;;
13868;SDS011;7004;48.206;16.402;2024-03-23T08:46:08;8.63;;;7.07;;
13868;SDS011;7004;48.206;16.402;2024-03-23T08:48:41;7.73;;;6.57;;
13868;SDS011;7004;48.206;16.402;2024-03-23T08:51:11;8.77;;;6.43;;
13868;SDS011;7004;48.206;16.402;2024-03-23T08:53:39;9.10;;;6.83;;
13868;SDS011;7004;48.206;16.402;2024-03-23T08:56:06;7.53;;;6.67;;
13868;SDS011;7004;48.206;16.402;2024-03-23T08:58:34;8.37;;;6.93;;
13868;SDS011;7004;48.206;16.402;2024-03-23T09:01:06;9.20;;;6.37;;
13868;SDS011;7004;48.206;16.402;2024-03-23T09:03:38;7.23;;;6.13;;
13868;SDS011;7004;48.206;16.402;2024-03-23T09:06:08;7.33;;;6.00;;
13868;SDS011;7004;48.206;16.402;2024-03-23T09:08:36;5.97;;;5.20;;
13868;SDS011;7004;48.206;16.402;2024-03-23T09:11:09;8.07;;;5.33;;
13868;SDS011;7004;48.206;16.402;2024-03-23T09:13:38;6.23;;;4.53;;
13868;SDS011;7004;48.206;16.402;2024-03-23T09:16:05;5.37;;;4.37;;
13868;SDS011;7004;48.206;16.402;2024-03-23T09:18:32;6.63;;;4.27;;
13868;SDS011;7004;48.206;16.402;2024-03-23T09:21:00;4.63;;;3.80;;
13868;SDS011;7004;48.206;16.402;2024-03-23T09:23:36;12.10;;;4.13;;
13868;SDS011;7004;48.206;16.402;2024-03-23T09:26:03;4.27;;;3.27;;
13868;SDS011;7004;48.206;16.402;2024-03-23T09:28:29;4.10;;;3.57;;
13868;SDS011;7004;48.206;16.402;2024-03-23T09:31:02;7.10;;;3.70;;
13868;SDS011;7004;48.206;16.402;2024-03-23T09:33:34;4.80;;;3.57;;
13868;SDS011;7004;48.206;16.402;2024-03-23T09:36:04;3.93;;;3.53;;
13868;SDS011;7004;48.206;16.402;2024-03-23T09:38:32;5.07;;;3.87;;
13868;SDS011;7004;48.206;16.402;2024-03-23T09:40:59;4.57;;;3.77;;
13868;SDS011;7004;48.206;16.402;2024-03-23T09:43:25;4.17;;;3.77;;
13868;SDS011;7004;48.206;16.402;2024-03-23T09:45:52;5.27;;;3.60;;
13868;SDS011;7004;48.206;16.402;2024-03-23T09:48:18;5.63;;;3.33;;
13868;SDS011;7004;48.206;16.402;2024-03-23T09:50:45;3.70;;;3.40;;
13868;SDS011;7004;48.206;16.402;2024-03-23T09:53:12;11.60;;;8.60;;
13868;SDS011;7004;48.206;16.402;2024-03-23T09:55:41;5.47;;;3.40;;
13868;SDS011;7004;48.206;16.402;2024-03-23T09:58:13;7.73;;;3.67;;
13868;SDS011;7004;48.206;16.402;2024-03-23T10:00:43;4.63;;;3.53;;
13868;SDS011;7004;48.206;16.402;2024-03-23T10:03:10;4.90;;;3.70;;
13868;SDS011;7004;48.206;16.402;2024-03-23T10:05:36;6.87;;;3.67;;
13868;SDS011;7004;48.206;16.402;2024-03-23T10:10:39;5.03;;;3.60;;
13868;SDS011;7004;48.206;16.402;2024-03-23T10:13:08;4.50;;;3.40;;
13868;SDS011;7004;48.206;16.402;2024-03-23T10:15:36;5.70;;;3.70;;
13868;SDS011;7004;48.206;16.402;2024-03-23T10:18:23;4.10;;;3.00;;
13868;SDS011;7004;48.206;16.402;2024-03-23T10:23:31;3.83;;;3.40;;
13868;SDS011;7004;48.206;16.402;2024-03-23T10:31:27;4.97;;;4.33;;
13868;SDS011;7004;48.206;16.402;2024-03-23T10:33:57;5.90;;;3.80;;
13868;SDS011;7004;48.206;16.402;2024-03-23T10:36:24;7.57;;;4.07;;
13868;SDS011;7004;48.206;16.402;2024-03-23T10:38:53;7.97;;;4.10;;
13868;SDS011;7004;48.206;16.402;2024-03-23T10:41:21;7.00;;;3.80;;
13868;SDS011;7004;48.206;16.402;2024-03-23T10:43:48;4.47;;;3.27;;
13868;SDS011;7004;48.206;16.402;2024-03-23T10:46:15;6.17;;;3.47;;
13868;SDS011;7004;48.206;16.402;2024-03-23T10:48:42;5.70;;;3.13;;
13868;SDS011;7004;48.206;16.402;2024-03-23T10:51:09;3.13;;;2.80;;
13868;SDS011;7004;48.206;16.402;2024-03-23T10:53:36;8.67;;;3.00;;
13868;SDS011;7004;48.206;16.402;2024-03-23T10:56:03;3.43;;;3.10;;
13868;SDS011;7004;48.206;16.402;2024-03-23T10:58:41;3.97;;;3.20;;
13868;SDS011;7004;48.206;16.402;2024-03-23T11:01:11;3.53;;;2.90;;
13868;SDS011;7004;48.206;16.402;2024-03-23T11:03:47;4.30;;;3.00;;
13868;SDS011;7004;48.206;16.402;2024-03-23T11:14:48;4.90;;;2.93;;
13868;SDS011;7004;48.206;16.402;2024-03-23T11:17:19;7.57;;;2.77;;
13868;SDS011;7004;48.206;16.402;2024-03-23T11:19:58;3.83;;;2.50;;
13868;SDS011;7004;48.206;16.402;2024-03-23T11:22:38;5.13;;;2.80;;
13868;SDS011;7004;48.206;16.402;2024-03-23T11:25:20;4.03;;;2.20;;
13868;SDS011;7004;48.206;16.402;2024-03-23T11:30:26;2.60;;;2.20;;
13868;SDS011;7004;48.206;16.402;2024-03-23T11:32:57;4.30;;;2.00;;
13868;SDS011;7004;48.206;16.402;2024-03-23T11:40:32;4.50;;;2.40;;
13868;SDS011;7004;48.206;16.402;2024-03-23T11:43:10;3.30;;;1.93;;
13868;SDS011;7004;48.206;16.402;2024-03-23T11:45:42;2.57;;;2.20;;
13868;SDS011;7004;48.206;16.402;2024-03-23T11:48:18;3.17;;;2.10;;
13868;SDS011;7004;48.206;16.402;2024-03-23T11:50:47;3.17;;;2.40;;
13868;SDS011;7004;48.206;16.402;2024-03-23T11:53:25;6.27;;;2.23;;
13868;SDS011;7004;48.206;16.402;2024-03-23T11:55:56;5.17;;;2.03;;
13868;SDS011;7004;48.206;16.402;2024-03-23T11:58:24;4.47;;;2.20;;
13868;SDS011;7004;48.206;16.402;2024-03-23T12:00:52;4.00;;;2.30;;
13868;SDS011;7004;48.206;16.402;2024-03-23T12:03:28;4.40;;;2.33;;
13868;SDS011;7004;48.206;16.402;2024-03-23T12:05:55;3.13;;;2.00;;
13868;SDS011;7004;48.206;16.402;2024-03-23T12:08:33;6.47;;;3.30;;
13868;SDS011;7004;48.206;16.402;2024-03-23T12:11:07;6.63;;;2.93;;
13868;SDS011;7004;48.206;16.402;2024-03-23T12:13:38;2.73;;;2.13;;
13868;SDS011;7004;48.206;16.402;2024-03-23T12:16:12;4.07;;;2.77;;
13868;SDS011;7004;48.206;16.402;2024-03-23T12:18:40;6.83;;;2.53;;
13868;SDS011;7004;48.206;16.402;2024-03-23T12:21:07;3.07;;;2.20;;
13868;SDS011;7004;48.206;16.402;2024-03-23T12:23:34;7.30;;;2.20;;
13868;SDS011;7004;48.206;16.402;2024-03-23T12:26:01;2.47;;;2.00;;
13868;SDS011;7004;48.206;16.402;2024-03-23T12:28:27;3.50;;;2.40;;
13868;SDS011;7004;48.206;16.402;2024-03-23T12:30:53;3.37;;;2.40;;
13868;SDS011;7004;48.206;16.402;2024-03-23T12:33:20;4.27;;;2.30;;
13868;SDS011;7004;48.206;16.402;2024-03-23T12:35:50;6.27;;;2.30;;
13868;SDS011;7004;48.206;16.402;2024-03-23T12:38:17;3.40;;;2.27;;
13868;SDS011;7004;48.206;16.402;2024-03-23T12:40:48;4.17;;;2.50;;
13868;SDS011;7004;48.206;16.402;2024-03-23T12:43:16;3.30;;;2.33;;
13868;SDS011;7004;48.206;16.402;2024-03-23T12:45:49;3.93;;;2.53;;
13868;SDS011;7004;48.206;16.402;2024-03-23T12:48:18;7.97;;;2.37;;
13868;SDS011;7004;48.206;16.402;2024-03-23T12:50:44;4.97;;;3.37;;
13868;SDS011;7004;48.206;16.402;2024-03-23T12:53:10;2.40;;;2.20;;
13868;SDS011;7004;48.206;16.402;2024-03-23T12:55:37;3.67;;;2.07;;
13868;SDS011;7004;48.206;16.402;2024-03-23T12:58:04;8.53;;;2.70;;
13868;SDS011;7004;48.206;16.402;2024-03-23T13:00:30;4.90;;;2.97;;
13868;SDS011;7004;48.206;16.402;2024-03-23T13:02:56;6.63;;;3.07;;
13868;SDS011;7004;48.206;16.402;2024-03-23T13:05:22;6.10;;;2.53;;
13868;SDS011;7004;48.206;16.402;2024-03-23T13:07:48;9.03;;;2.57;;
13868;SDS011;7004;48.206;16.402;2024-03-23T13:10:14;5.60;;;2.23;;
13868;SDS011;7004;48.206;16.402;2024-03-23T13:12:41;4.87;;;1.80;;
13868;SDS011;7004;48.206;16.402;2024-03-23T13:15:08;5.60;;;2.20;;
13868;SDS011;7004;48.206;16.402;2024-03-23T13:17:34;4.60;;;1.67;;
13868;SDS011;7004;48.206;16.402;2024-03-23T13:20:00;4.30;;;1.87;;
13868;SDS011;7004;48.206;16.402;2024-03-23T13:22:26;2.30;;;1.40;;
13868;SDS011;7004;48.206;16.402;2024-03-23T13:24:52;2.03;;;1.83;;
13868;SDS011;7004;48.206;16.402;2024-03-23T13:27:19;2.33;;;1.50;;
13868;SDS011;7004;48.206;16.402;2024-03-23T13:29:45;2.03;;;1.47;;
13868;SDS011;7004;48.206;16.402;2024-03-23T13:32:12;3.40;;;1.47;;
13868;SDS011;7004;48.206;16.402;2024-03-23T13:34:39;3.73;;;1.40;;
13868;SDS011;7004;48.206;16.402;2024-03-23T13:37:05;10.27;;;6.87;;
13868;SDS011;7004;48.206;16.402;2024-03-23T13:39:32;3.27;;;1.60;;
13868;SDS011;7004;48.206;16.402;2024-03-23T13:41:58;2.17;;;1.50;;
13868;SDS011;7004;48.206;16.402;2024-03-23T13:44:24;2.63;;;1.30;;
13868;SDS011;7004;48.206;16.402;2024-03-23T13:46:51;4.37;;;1.33;;
13868;SDS011;7004;48.206;16.402;2024-03-23T13:49:27;1.40;;;1.30;;
13868;SDS011;7004;48.206;16.402;2024-03-23T13:52:00;1.77;;;1.47;;
13868;SDS011;7004;48.206;16.402;2024-03-23T13:54:26;1.63;;;1.53;;
13868;SDS011;7004;48.206;16.402;2024-03-23T13:56:56;1.80;;;1.70;;
13868;SDS011;7004;48.206;16.402;2024-03-23T13:59:22;5.37;;;1.57;;
13868;SDS011;7004;48.206;16.402;2024-03-23T14:01:49;2.17;;;1.60;;
13868;SDS011;7004;48.206;16.402;2024-03-23T14:04:16;9.93;;;6.20;;
13868;SDS011;7004;48.206;16.402;2024-03-23T14:06:44;2.33;;;1.70;;
13868;SDS011;7004;48.206;16.402;2024-03-23T14:09:11;2.17;;;1.40;;
13868;SDS011;7004;48.206;16.402;2024-03-23T14:11:39;4.20;;;1.73;;
13868;SDS011;7004;48.206;16.402;2024-03-23T14:14:07;2.37;;;1.37;;
13868;SDS011;7004;48.206;16.402;2024-03-23T14:16:33;2.00;;;1.57;;
13868;SDS011;7004;48.206;16.402;2024-03-23T14:18:59;2.00;;;1.47;;
13868;SDS011;7004;48.206;16.402;2024-03-23T14:21:25;1.97;;;1.67;;
13868;SDS011;7004;48.206;16.402;2024-03-23T14:23:51;2.80;;;1.70;;
13868;SDS011;7004;48.206;16.402;2024-03-23T14:26:19;4.37;;;2.17;;
13868;SDS011;7004;48.206;16.402;2024-03-23T14:28:45;1.97;;;1.80;;
13868;SDS011;7004;48.206;16.402;2024-03-23T14:31:11;2.13;;;1.60;;
13868;SDS011;7004;48.206;16.402;2024-03-23T14:33:37;2.00;;;1.70;;
13868;SDS011;7004;48.206;16.402;2024-03-23T14:36:15;1.80;;;1.70;;
13868;SDS011;7004;48.206;16.402;2024-03-23T14:38:46;2.27;;;1.63;;
13868;SDS011;7004;48.206;16.402;2024-03-23T14:41:14;2.07;;;1.80;;
13868;SDS011;7004;48.206;16.402;2024-03-23T14:43:41;2.93;;;2.33;;
13868;SDS011;7004;48.206;16.402;2024-03-23T14:46:15;3.60;;;2.80;;
13868;SDS011;7004;48.206;16.402;2024-03-23T14:48:42;2.50;;;1.80;;
13868;SDS011;7004;48.206;16.402;2024-03-23T14:51:10;1.80;;;1.70;;
13868;SDS011;7004;48.206;16.402;2024-03-23T14:53:37;2.90;;;2.10;;
13868;SDS011;7004;48.206;16.402;2024-03-23T14:56:08;5.97;;;1.90;;
13868;SDS011;7004;48.206;16.402;2024-03-23T14:58:40;5.70;;;2.10;;
13868;SDS011;7004;48.206;16.402;2024-03-23T15:01:08;1.93;;;1.70;;
13868;SDS011;7004;48.206;16.402;2024-03-23T15:03:35;2.30;;;1.83;;
13868;SDS011;7004;48.206;16.402;2024-03-23T15:06:05;2.10;;;1.87;;
13868;SDS011;7004;48.206;16.402;2024-03-23T15:08:34;1.63;;;1.53;;
13868;SDS011;7004;48.206;16.402;2024-03-23T15:11:02;1.90;;;1.40;;
13868;SDS011;7004;48.206;16.402;2024-03-23T15:13:34;1.63;;;1.53;;
13868;SDS011;7004;48.206;16.402;2024-03-23T15:16:02;1.57;;;1.47;;
13868;SDS011;7004;48.206;16.402;2024-03-23T15:18:29;3.73;;;1.67;;
13868;SDS011;7004;48.206;16.402;2024-03-23T15:20:56;3.03;;;1.57;;
13868;SDS011;7004;48.206;16.402;2024-03-23T15:23:37;3.60;;;1.53;;
13868;SDS011;7004;48.206;16.402;2024-03-23T15:26:03;2.40;;;1.80;;
13868;SDS011;7004;48.206;16.402;2024-03-23T15:28:33;1.53;;;1.43;;
13868;SDS011;7004;48.206;16.402;2024-03-23T15:31:28;1.70;;;1.60;;
13868;SDS011;7004;48.206;16.402;2024-03-23T15:33:55;1.57;;;1.47;;
13868;SDS011;7004;48.206;16.402;2024-03-23T15:36:21;2.40;;;1.80;;
13868;SDS011;7004;48.206;16.402;2024-03-23T15:38:48;1.97;;;1.40;;
13868;SDS011;7004;48.206;16.402;2024-03-23T15:41:14;3.57;;;1.67;;
13868;SDS011;7004;48.206;16.402;2024-03-23T15:43:40;1.70;;;1.60;;
13868;SDS011;7004;48.206;16.402;2024-03-23T15:46:06;2.53;;;2.00;;
13868;SDS011;7004;48.206;16.402;2024-03-23T15:48:34;3.20;;;1.73;;
13868;SDS011;7004;48.206;16.402;2024-03-23T15:51:02;5.00;;;2.20;;
13868;SDS011;7004;48.206;16.402;2024-03-23T15:53:29;2.27;;;1.60;;
13868;SDS011;7004;48.206;16.402;2024-03-23T15:56:05;1.63;;;1.53;;
13868;SDS011;7004;48.206;16.402;2024-03-23T15:58:32;4.43;;;2.23;;
13868;SDS011;7004;48.206;16.402;2024-03-23T16:01:03;5.47;;;1.80;;